Time;durP1;ratioP1;P1;durP2;ratioP2;P2;SDS_P1;SDS_P2;PMS_P1;PMS_P2;Temp;Humidity;BMP_temperature;BMP_pressure;BME280_temperature;BME280_humidity;BME280_pressure;Samples;Min_cycle;Max_cycle;Signal;HPM_P1;HPM_P2
2023/05/04 00:02:00;;;;;;;7.93;3.25;;;17.10;74.20;;;;;;5053005;28;20397;-74
2023/05/04 00:04:26;;;;;;;6.35;3.65;;;17.10;74.40;;;;;;5053191;28;20037;-73
2023/05/04 00:06:51;;;;;;;6.60;3.75;;;17.00;74.30;;;;;;5053149;28;20070;-75
2023/05/04 00:09:18;;;;;;;8.10;3.40;;;17.00;74.40;;;;;;5053073;28;20493;-72
2023/05/04 00:11:43;;;;;;;4.88;3.20;;;17.00;74.60;;;;;;5052770;28;20056;-72
2023/05/04 00:14:09;;;;;;;7.28;3.30;;;17.10;74.40;;;;;;5052866;28;20073;-74
2023/05/04 00:16:35;;;;;;;11.20;3.60;;;17.20;74.40;;;;;;5052749;28;20104;-73
2023/05/04 00:19:01;;;;;;;5.65;3.17;;;17.20;74.20;;;;;;5052933;28;20033;-74
2023/05/04 00:21:27;;;;;;;7.57;3.10;;;17.30;74.20;;;;;;5034616;28;20483;-74
2023/05/04 00:23:52;;;;;;;7.68;3.50;;;17.30;74.30;;;;;;5052691;28;20108;-74
2023/05/04 00:26:18;;;;;;;8.05;3.47;;;17.30;74.10;;;;;;5052198;28;20064;-72
2023/05/04 00:28:44;;;;;;;7.55;3.13;;;17.30;74.10;;;;;;5051955;28;20521;-75
2023/05/04 00:31:10;;;;;;;5.85;2.80;;;17.30;74.20;;;;;;5052177;28;20041;-74
2023/05/04 00:33:35;;;;;;;8.68;3.40;;;17.30;73.90;;;;;;5053040;28;20037;-74
2023/05/04 00:36:04;;;;;;;6.93;3.20;;;17.30;73.70;;;;;;5053152;28;20116;-75
2023/05/04 00:38:30;;;;;;;5.70;3.20;;;17.30;73.80;;;;;;5052548;28;20037;-74
2023/05/04 00:40:57;;;;;;;6.00;2.88;;;17.30;73.90;;;;;;5034381;28;20098;-73
2023/05/04 00:43:25;;;;;;;5.97;3.25;;;17.30;73.80;;;;;;5052250;28;20029;-74
2023/05/04 00:45:51;;;;;;;5.50;3.30;;;17.30;73.60;;;;;;5052462;28;20033;-73
2023/05/04 00:48:17;;;;;;;6.05;3.05;;;17.30;73.50;;;;;;5052315;28;20613;-74
2023/05/04 00:50:43;;;;;;;4.75;2.60;;;17.30;73.50;;;;;;5052188;28;20037;-74
2023/05/04 00:53:10;;;;;;;4.43;2.85;;;17.20;73.30;;;;;;5052328;28;20111;-75
2023/05/04 00:55:39;;;;;;;6.28;3.08;;;17.20;72.90;;;;;;5034201;28;20084;-74
2023/05/04 00:58:07;;;;;;;6.88;2.90;;;17.10;73.50;;;;;;5052085;28;20037;-74
2023/05/04 01:00:33;;;;;;;4.03;2.67;;;17.10;72.90;;;;;;5034358;28;20506;-74
2023/05/04 01:02:59;;;;;;;8.50;3.05;;;17.00;72.90;;;;;;5052225;28;20522;-74
2023/05/04 01:05:30;;;;;;;6.13;3.05;;;17.00;72.90;;;;;;5051907;28;20062;-74
2023/05/04 01:08:17;;;;;;;5.07;2.70;;;16.90;72.70;;;;;;5051981;28;20036;-74
2023/05/04 01:10:55;;;;;;;6.13;2.97;;;16.90;72.80;;;;;;5034073;28;20041;-73
2023/05/04 01:13:21;;;;;;;5.30;2.72;;;16.90;72.60;;;;;;5052257;28;20136;-73
2023/05/04 01:15:48;;;;;;;5.70;2.63;;;16.90;72.70;;;;;;5052194;28;20552;-75
2023/05/04 01:18:15;;;;;;;5.85;2.85;;;16.90;72.50;;;;;;5052017;28;20355;-75
2023/05/04 01:20:41;;;;;;;4.50;2.70;;;16.90;72.50;;;;;;5051944;28;20080;-74
2023/05/04 01:23:07;;;;;;;6.22;2.60;;;16.90;72.30;;;;;;5051828;28;20033;-75
2023/05/04 01:25:40;;;;;;;7.32;2.60;;;16.90;72.20;;;;;;5051941;28;20040;-74
2023/05/04 01:28:17;;;;;;;4.00;2.50;;;16.90;72.20;;;;;;5051718;28;20029;-74
2023/05/04 01:30:47;;;;;;;4.95;2.83;;;16.90;72.20;;;;;;5051168;28;20051;-74
2023/05/04 01:33:14;;;;;;;4.72;2.83;;;16.90;72.20;;;;;;5033834;28;20037;-74
2023/05/04 01:35:41;;;;;;;6.38;3.20;;;16.90;72.40;;;;;;5051557;28;20087;-74
2023/05/04 01:38:06;;;;;;;7.30;3.03;;;17.00;72.80;;;;;;5052789;28;20037;-73
2023/05/04 01:40:32;;;;;;;5.53;3.22;;;17.00;72.80;;;;;;5055597;28;20029;-73
2023/05/04 01:42:58;;;;;;;4.55;2.58;;;17.00;72.60;;;;;;5055843;28;20087;-73
2023/05/04 01:45:23;;;;;;;5.22;3.13;;;17.00;72.70;;;;;;5055687;28;20498;-74
2023/05/04 01:47:49;;;;;;;4.80;2.90;;;17.00;72.70;;;;;;5055421;28;20044;-75
2023/05/04 01:50:15;;;;;;;5.53;3.17;;;16.90;72.60;;;;;;5055297;28;20036;-73
2023/05/04 01:52:40;;;;;;;6.68;2.72;;;16.90;72.90;;;;;;5055361;28;20552;-73
2023/05/04 01:55:06;;;;;;;6.47;2.97;;;16.80;72.90;;;;;;5055492;28;20547;-73
2023/05/04 01:57:32;;;;;;;6.40;2.85;;;16.80;73.10;;;;;;5055960;28;20048;-74
2023/05/04 01:59:58;;;;;;;5.93;3.05;;;16.80;72.80;;;;;;5055899;28;20092;-75
2023/05/04 02:02:24;;;;;;;4.47;2.80;;;16.80;72.90;;;;;;5055278;28;20209;-73
2023/05/04 02:04:50;;;;;;;5.03;2.67;;;16.80;72.90;;;;;;5055288;28;20033;-74
2023/05/04 02:07:15;;;;;;;6.47;2.85;;;16.80;72.70;;;;;;5055301;28;20394;-74
2023/05/04 02:09:41;;;;;;;5.28;2.63;;;16.80;72.60;;;;;;5055053;28;20474;-74
2023/05/04 02:12:07;;;;;;;5.93;2.55;;;16.70;72.30;;;;;;5055112;28;20405;-74
2023/05/04 02:14:33;;;;;;;3.78;2.35;;;16.70;72.50;;;;;;5054995;28;20431;-75
2023/05/04 02:16:58;;;;;;;5.80;2.88;;;16.70;72.40;;;;;;5055063;28;20108;-73
2023/05/04 02:19:24;;;;;;;4.35;2.33;;;16.80;72.40;;;;;;5055059;28;20532;-74
2023/05/04 02:21:51;;;;;;;4.80;2.47;;;16.80;72.30;;;;;;5054689;28;20052;-72
2023/05/04 02:24:17;;;;;;;4.95;2.75;;;16.80;72.40;;;;;;5054988;28;20033;-73
2023/05/04 02:26:42;;;;;;;7.63;2.80;;;16.80;72.40;;;;;;5037161;28;20040;-74
2023/05/04 02:29:08;;;;;;;5.50;2.53;;;16.80;72.30;;;;;;5054531;28;20045;-73
2023/05/04 02:31:34;;;;;;;5.80;3.15;;;16.90;72.40;;;;;;5054059;28;20055;-74
2023/05/04 02:34:00;;;;;;;4.97;2.50;;;16.90;72.30;;;;;;5054598;28;20033;-73
2023/05/04 02:36:26;;;;;;;6.22;2.88;;;16.90;72.20;;;;;;5054614;28;20033;-74
2023/05/04 02:38:53;;;;;;;5.03;3.00;;;16.90;72.20;;;;;;5054937;28;20037;-73
2023/05/04 02:41:19;;;;;;;5.30;3.35;;;16.80;72.30;;;;;;5054534;28;20479;-74
2023/05/04 02:43:45;;;;;;;5.97;3.05;;;16.80;72.30;;;;;;5054819;28;20398;-74
2023/05/04 02:46:11;;;;;;;5.75;3.13;;;16.70;72.40;;;;;;5054385;28;20037;-73
2023/05/04 02:48:36;;;;;;;5.28;2.63;;;16.70;72.30;;;;;;5054416;28;20028;-73
2023/05/04 02:51:02;;;;;;;5.35;3.10;;;16.60;72.30;;;;;;5053197;28;20052;-73
2023/05/04 02:53:28;;;;;;;5.38;2.97;;;16.60;72.50;;;;;;5054334;28;20386;-75
2023/05/04 02:55:54;;;;;;;7.88;3.20;;;16.60;72.60;;;;;;5054148;28;20033;-74
2023/05/04 02:58:20;;;;;;;4.93;2.80;;;16.60;72.40;;;;;;5054048;28;20041;-73
2023/05/04 03:00:45;;;;;;;4.65;2.90;;;16.50;72.50;;;;;;5054069;28;20029;-74
2023/05/04 03:03:11;;;;;;;4.53;2.72;;;16.50;72.70;;;;;;5054287;28;20025;-74
2023/05/04 03:05:37;;;;;;;4.25;2.65;;;16.40;72.60;;;;;;5054483;28;20033;-72
2023/05/04 03:08:03;;;;;;;5.57;2.85;;;16.30;72.80;;;;;;5054151;28;20115;-73
2023/05/04 03:10:28;;;;;;;5.07;2.83;;;16.30;73.00;;;;;;5036090;28;20041;-73
2023/05/04 03:12:54;;;;;;;4.40;2.70;;;16.30;73.10;;;;;;5053911;28;20111;-73
2023/05/04 03:15:20;;;;;;;4.78;2.70;;;16.30;73.10;;;;;;5053776;28;20025;-73
2023/05/04 03:17:46;;;;;;;7.22;2.55;;;16.30;73.10;;;;;;5035858;28;20037;-74
2023/05/04 03:20:12;;;;;;;4.78;2.70;;;16.20;73.10;;;;;;5053698;28;20029;-74
2023/05/04 03:22:38;;;;;;;4.47;2.72;;;16.10;73.10;;;;;;5054293;28;20068;-72
2023/05/04 03:25:04;;;;;;;4.85;2.58;;;16.10;73.30;;;;;;5053969;28;20466;-75
2023/05/04 03:27:30;;;;;;;5.30;2.70;;;16.00;73.50;;;;;;5054035;28;20052;-74
2023/05/04 21:31:08;;;;;;;14.13;8.20;;;19.00;78.50;;;;;;5009396;28;20058;-71
2023/05/04 21:33:35;;;;;;;11.30;8.23;;;19.00;78.60;;;;;;5012292;28;20049;-72
2023/05/04 21:36:10;;;;;;;13.98;7.97;;;19.00;78.70;;;;;;5012258;28;20083;-73
2023/05/04 21:38:36;;;;;;;10.63;8.10;;;19.00;79.40;;;;;;5012405;28;20494;-70
2023/05/04 21:41:14;;;;;;;10.63;8.13;;;18.90;79.70;;;;;;5012063;28;20034;-71
2023/05/04 21:43:40;;;;;;;13.02;8.35;;;18.90;80.40;;;;;;5012141;28;20065;-71
2023/05/04 21:46:07;;;;;;;14.50;8.70;;;18.90;80.00;;;;;;5012056;28;20070;-72
2023/05/04 21:48:33;;;;;;;15.07;8.55;;;18.90;80.50;;;;;;5011845;28;20034;-71
2023/05/04 21:50:59;;;;;;;13.60;8.05;;;18.90;80.70;;;;;;5011876;28;20057;-68
2023/05/04 21:53:25;;;;;;;11.27;8.82;;;18.80;81.10;;;;;;5012999;28;20045;-72
2023/05/04 21:55:51;;;;;;;12.35;9.38;;;18.80;81.40;;;;;;5013773;28;20030;-72
2023/05/04 21:58:17;;;;;;;14.07;9.63;;;18.80;81.60;;;;;;5015743;28;20448;-72
2023/05/04 22:00:43;;;;;;;13.13;9.32;;;18.80;81.80;;;;;;5016542;28;20084;-70
2023/05/04 22:03:09;;;;;;;12.70;10.32;;;18.80;82.10;;;;;;5015886;28;20022;-72
2023/05/04 22:05:35;;;;;;;15.73;10.95;;;18.70;82.00;;;;;;5015152;28;20042;-72
2023/05/04 22:08:02;;;;;;;15.60;10.35;;;18.70;82.30;;;;;;5014985;28;20030;-72
2023/05/04 22:10:28;;;;;;;16.00;11.02;;;18.70;82.40;;;;;;5015244;28;20069;-72
2023/05/04 22:12:53;;;;;;;20.58;11.35;;;18.70;82.70;;;;;;5030416;28;20128;-71
2023/05/04 22:15:19;;;;;;;16.38;10.10;;;18.60;82.90;;;;;;5015436;28;20500;-71
2023/05/04 22:17:45;;;;;;;19.25;11.02;;;18.60;83.00;;;;;;5015428;28;20440;-71
2023/05/04 22:20:11;;;;;;;16.30;10.80;;;18.60;83.40;;;;;;5015688;28;20034;-73
2023/05/04 22:22:37;;;;;;;18.83;10.80;;;18.60;83.80;;;;;;5015345;28;20049;-72
2023/05/04 22:25:03;;;;;;;14.02;10.10;;;18.50;83.60;;;;;;5015374;28;20041;-73
2023/05/04 22:27:28;;;;;;;14.95;10.63;;;18.50;84.00;;;;;;5015010;28;20034;-71
2023/05/04 22:29:54;;;;;;;12.35;9.90;;;18.40;84.00;;;;;;5015116;28;20119;-72
2023/05/04 22:32:20;;;;;;;19.98;9.82;;;18.40;84.30;;;;;;4997606;28;20046;-72
2023/05/04 22:34:45;;;;;;;14.02;10.00;;;18.40;84.70;;;;;;5015036;28;20093;-71
2023/05/04 22:37:11;;;;;;;18.23;10.73;;;18.40;84.90;;;;;;5014695;28;20096;-73
2023/05/04 22:39:37;;;;;;;21.05;10.35;;;18.40;85.00;;;;;;5014942;28;20040;-71
2023/05/04 22:42:02;;;;;;;28.48;10.75;;;18.40;85.20;;;;;;5014663;28;20037;-71
2023/05/04 22:44:28;;;;;;;43.22;12.65;;;18.40;85.30;;;;;;5015150;28;20041;-71
2023/05/04 22:46:54;;;;;;;34.05;11.52;;;18.40;85.50;;;;;;5014730;28;20026;-71
2023/05/04 22:49:20;;;;;;;50.35;13.63;;;18.40;85.60;;;;;;5014696;28;20030;-71
2023/05/04 22:51:46;;;;;;;25.63;11.35;;;18.40;85.90;;;;;;5014798;28;20064;-71
2023/05/04 22:54:12;;;;;;;17.80;10.15;;;18.30;86.40;;;;;;5014777;28;20036;-72
2023/05/04 22:56:39;;;;;;;17.15;10.77;;;18.30;86.10;;;;;;5014510;28;20034;-69
2023/05/04 22:59:05;;;;;;;16.25;10.15;;;18.30;86.30;;;;;;5014411;28;20162;-71
2023/05/04 23:01:31;;;;;;;12.25;9.20;;;18.30;86.40;;;;;;5014446;28;20464;-71
2023/05/04 23:03:57;;;;;;;15.73;10.32;;;18.40;86.50;;;;;;5014273;28;20037;-71
2023/05/04 23:06:22;;;;;;;15.02;9.32;;;18.40;86.60;;;;;;4996075;28;20049;-72
2023/05/04 23:08:48;;;;;;;15.02;9.25;;;18.40;86.40;;;;;;5013907;28;20492;-73
2023/05/04 23:11:18;;;;;;;15.90;10.27;;;18.40;86.60;;;;;;5013824;28;20038;-71
2023/05/04 23:13:44;;;;;;;15.35;9.82;;;18.40;86.80;;;;;;5014088;28;20034;-71
2023/05/04 23:16:10;;;;;;;12.48;9.50;;;18.30;86.80;;;;;;5014376;28;20036;-71
2023/05/04 23:18:35;;;;;;;14.63;9.77;;;18.30;87.20;;;;;;5014662;28;20148;-69
2023/05/04 23:21:01;;;;;;;12.77;9.95;;;18.30;87.30;;;;;;5014188;28;20026;-70
2023/05/04 23:23:27;;;;;;;12.63;9.13;;;18.20;87.30;;;;;;5014036;28;20069;-71
2023/05/04 23:25:52;;;;;;;13.00;9.30;;;18.20;87.40;;;;;;5014276;28;20097;-71
2023/05/04 23:28:18;;;;;;;16.35;9.23;;;18.20;87.50;;;;;;5015102;28;20088;-72
2023/05/04 23:30:44;;;;;;;11.63;9.35;;;18.20;87.50;;;;;;5014857;28;20084;-72
2023/05/04 23:33:10;;;;;;;13.55;9.63;;;18.20;87.70;;;;;;5014976;28;20045;-71
2023/05/04 23:35:35;;;;;;;12.85;9.88;;;18.20;87.80;;;;;;5012953;28;20037;-72
2023/05/04 23:38:02;;;;;;;15.95;9.95;;;18.20;88.10;;;;;;5013776;28;20038;-71
2023/05/04 23:40:28;;;;;;;13.18;10.30;;;18.10;88.30;;;;;;5013619;28;20049;-71
2023/05/04 23:42:54;;;;;;;13.52;9.52;;;18.10;88.60;;;;;;5013377;28;20038;-71
2023/05/04 23:45:19;;;;;;;13.10;9.70;;;18.00;88.60;;;;;;5013421;28;20034;-70
2023/05/04 23:47:45;;;;;;;13.90;9.75;;;18.00;88.90;;;;;;5013284;28;20042;-70
2023/05/04 23:50:11;;;;;;;11.95;9.45;;;18.00;89.00;;;;;;5013365;28;20101;-70
2023/05/04 23:52:36;;;;;;;11.73;9.98;;;18.00;89.40;;;;;;5013016;28;20068;-71
2023/05/04 23:55:02;;;;;;;15.10;10.18;;;18.00;89.40;;;;;;5013156;28;20026;-70
2023/05/04 23:57:28;;;;;;;12.52;9.77;;;17.90;89.30;;;;;;5013601;28;20049;-69
2023/05/04 23:59:54;;;;;;;12.70;9.80;;;17.90;89.60;;;;;;4995398;28;20070;-71
